METAR Data
IDs: Format: Raw Decoded Include TAF

Data at: 1158 UTC 22 Jan 2022

METAR for:EGNX (Nottingham/E Midland, EN, GB)
Text:EGNX 221020Z 27010KT CAVOK 06/03 Q1036
Temperature: 6.0°C ( 43°F)
Dewpoint: 3.0°C ( 37°F) [RH = 81%]
Pressure (altimeter):30.59 inches Hg (1036.0 mb)
Winds:from the W (270 degrees) at 12 MPH (10 knots; 5.1 m/s)
Visibility:6 or more sm (10+ km)
Ceiling:ceiling and visibility are OK
Clouds:unknown